Trina Smith — WDE3530 — position and weather

sailwx.info

Track history (hours):
 
Tides and Currents Weather Stations Pressure Air Temp Water Temp Dewpoint Dewpoint Depression Visibility Wind Speed Wind Dir Waves Ship Positions

Trina Smith

Owner: Florida Marine Transporters, Inc., Mandeville, LA. More information available from US FCC via Universal Licensing System and Coast Guard Vessel Documentation Center.

Last reported at 2017-Nov-19 19:44 UTC. Time now 2017-Nov-23 10:58 UTC.
Position N 29°26' W 094°50'.

Length 27 m; draft 2.9 m.

Type: Towing. MMSI: 367340460.

Date/timePositionNaut miles runAvg speedWind from/ knotsBaromVisibWave heightAir tempDewpointWater temp
2017-Nov-19 19:44N 29°26' W 094°50'2 5.9
2017-Nov-19 19:25N 29°28' W 094°51'2 5.7
2017-Nov-19 19:00N 29°30' W 094°52'3 5.7
2017-Nov-19 18:30N 29°32' W 094°54'3 6.5
2017-Nov-19 18:00N 29°35' W 094°56'3 6.3
2017-Nov-19 17:30N 29°38' W 094°58'3 6.2
2017-Nov-19 17:00N 29°41' W 094°59'3 5.8
2017-Nov-19 16:30N 29°43' W 095°01'2 4.2
2017-Nov-19 16:00N 29°44' W 095°03'3 4.1
2017-Nov-19 15:24N 29°45' W 095°06'2 5.4
2017-Nov-19 14:59N 29°44' W 095°09'2 0.0
2017-Nov-18 01:56N 29°44' W 095°07'2 5.0
2017-Nov-18 01:26N 29°45' W 095°04'2 5.6
2017-Nov-18 01:00N 29°44' W 095°02'3 6.1
2017-Nov-18 00:30N 29°42' W 094°59'4 7.1
2017-Nov-18 00:00N 29°38' W 094°58'3 7.0
2017-Nov-17 23:30N 29°35' W 094°56'4 7.2
2017-Nov-17 23:00N 29°32' W 094°54'  
Track history (hours):
 
Tides and Currents Weather Stations Pressure Air Temp Water Temp Dewpoint Dewpoint Depression Visibility Wind Speed Wind Dir Waves Ship Positions

Trina Smith

Owner: Florida Marine Transporters, Inc., Mandeville, LA. More information available from US FCC via Universal Licensing System and Coast Guard Vessel Documentation Center.

Last reported at 2017-Nov-19 19:44 UTC. Time now 2017-Nov-23 10:58 UTC.
Position N 29°26' W 094°50'.

Length 27 m; draft 2.9 m.

Type: Towing. MMSI: 367340460.

Date/timePositionNaut miles runAvg speedWind from/ knotsBaromVisibWave heightAir tempDewpointWater temp
2017-Nov-19 19:44N 29°26' W 094°50'2 5.9
2017-Nov-19 19:25N 29°28' W 094°51'2 5.7
2017-Nov-19 19:00N 29°30' W 094°52'3 5.7
2017-Nov-19 18:30N 29°32' W 094°54'3 6.5
2017-Nov-19 18:00N 29°35' W 094°56'3 6.3
2017-Nov-19 17:30N 29°38' W 094°58'3 6.2
2017-Nov-19 17:00N 29°41' W 094°59'3 5.8
2017-Nov-19 16:30N 29°43' W 095°01'2 4.2
2017-Nov-19 16:00N 29°44' W 095°03'3 4.1
2017-Nov-19 15:24N 29°45' W 095°06'2 5.4
2017-Nov-19 14:59N 29°44' W 095°09'2 0.0
2017-Nov-18 01:56N 29°44' W 095°07'2 5.0
2017-Nov-18 01:26N 29°45' W 095°04'2 5.6
2017-Nov-18 01:00N 29°44' W 095°02'3 6.1
2017-Nov-18 00:30N 29°42' W 094°59'4 7.1
2017-Nov-18 00:00N 29°38' W 094°58'3 7.0
2017-Nov-17 23:30N 29°35' W 094°56'4 7.2
2017-Nov-17 23:00N 29°32' W 094°54'  

Dump ship's entire track history